sensor_id;sensor_type;location;lat;lon;timestamp;pressure;altitude;pressure_sealevel;temperature;humidity
40872;BME280;26591;43.264;26.940;2022-08-02T00:01:37;98626.50;;;22.63;58.49
40872;BME280;26591;43.264;26.940;2022-08-02T00:04:03;98623.47;;;22.87;57.72
40872;BME280;26591;43.264;26.940;2022-08-02T00:06:29;98635.50;;;23.12;57.30
40872;BME280;26591;43.264;26.940;2022-08-02T00:08:54;98626.78;;;23.32;57.26
40872;BME280;26591;43.264;26.940;2022-08-02T00:11:20;98618.84;;;23.63;56.77
40872;BME280;26591;43.264;26.940;2022-08-02T00:13:45;98623.28;;;23.90;55.47
40872;BME280;26591;43.264;26.940;2022-08-02T00:16:11;98626.63;;;24.02;55.51
40872;BME280;26591;43.264;26.940;2022-08-02T00:18:37;98627.06;;;23.84;55.28
40872;BME280;26591;43.264;26.940;2022-08-02T00:21:03;98626.94;;;24.11;55.47
40872;BME280;26591;43.264;26.940;2022-08-02T00:23:28;98628.06;;;24.36;54.69
40872;BME280;26591;43.264;26.940;2022-08-02T00:25:54;98627.84;;;24.48;53.67
40872;BME280;26591;43.264;26.940;2022-08-02T00:28:20;98626.69;;;24.23;53.71
40872;BME280;26591;43.264;26.940;2022-08-02T00:30:45;98630.41;;;24.01;54.10
40872;BME280;26591;43.264;26.940;2022-08-02T00:33:11;98628.53;;;24.07;54.92
40872;BME280;26591;43.264;26.940;2022-08-02T00:35:36;98623.84;;;23.92;54.72
40872;BME280;26591;43.264;26.940;2022-08-02T00:38:03;98623.94;;;24.02;55.49
40872;BME280;26591;43.264;26.940;2022-08-02T00:40:29;98628.53;;;24.07;55.86
40872;BME280;26591;43.264;26.940;2022-08-02T00:45:29;98628.31;;;24.24;54.94
40872;BME280;26591;43.264;26.940;2022-08-02T00:47:55;98628.59;;;24.28;54.00
40872;BME280;26591;43.264;26.940;2022-08-02T00:50:21;98631.59;;;24.36;54.89
40872;BME280;26591;43.264;26.940;2022-08-02T00:52:47;98628.88;;;24.36;53.68
40872;BME280;26591;43.264;26.940;2022-08-02T00:55:13;98624.81;;;24.29;54.81
40872;BME280;26591;43.264;26.940;2022-08-02T00:57:38;98632.41;;;24.42;54.09
40872;BME280;26591;43.264;26.940;2022-08-02T01:00:05;98628.91;;;24.47;54.29
40872;BME280;26591;43.264;26.940;2022-08-02T01:02:31;98632.16;;;24.64;54.04
40872;BME280;26591;43.264;26.940;2022-08-02T01:04:57;98616.25;;;24.78;54.03
40872;BME280;26591;43.264;26.940;2022-08-02T01:07:22;98618.41;;;24.87;53.88
40872;BME280;26591;43.264;26.940;2022-08-02T01:09:48;98632.22;;;25.06;53.31
40872;BME280;26591;43.264;26.940;2022-08-02T01:12:13;98627.63;;;24.96;52.69
40872;BME280;26591;43.264;26.940;2022-08-02T01:14:42;98632.22;;;24.75;53.39
40872;BME280;26591;43.264;26.940;2022-08-02T01:17:19;98633.84;;;24.91;53.09
40872;BME280;26591;43.264;26.940;2022-08-02T01:30:56;98650.63;;;24.98;52.87
40872;BME280;26591;43.264;26.940;2022-08-02T01:33:26;98656.28;;;24.71;54.34
40872;BME280;26591;43.264;26.940;2022-08-02T01:35:54;98657.59;;;24.53;54.97
40872;BME280;26591;43.264;26.940;2022-08-02T01:38:38;98660.03;;;24.65;54.33
40872;BME280;26591;43.264;26.940;2022-08-02T01:41:07;98663.63;;;24.76;54.32
40872;BME280;26591;43.264;26.940;2022-08-02T01:43:34;98658.22;;;24.86;53.69
40872;BME280;26591;43.264;26.940;2022-08-02T01:46:02;98657.66;;;24.94;53.42
40872;BME280;26591;43.264;26.940;2022-08-02T01:48:30;98661.44;;;24.98;53.48
40872;BME280;26591;43.264;26.940;2022-08-02T01:51:00;98668.22;;;25.11;53.28
40872;BME280;26591;43.264;26.940;2022-08-02T01:53:28;98671.47;;;24.82;53.88
40872;BME280;26591;43.264;26.940;2022-08-02T01:55:57;98667.34;;;24.64;54.15
40872;BME280;26591;43.264;26.940;2022-08-02T01:58:26;98673.63;;;24.75;54.56
40872;BME280;26591;43.264;26.940;2022-08-02T02:00:55;98676.31;;;24.70;54.04
40872;BME280;26591;43.264;26.940;2022-08-02T02:03:24;98670.59;;;24.61;54.69
40872;BME280;26591;43.264;26.940;2022-08-02T02:05:53;98672.50;;;24.71;54.04
40872;BME280;26591;43.264;26.940;2022-08-02T02:08:24;98680.88;;;24.59;54.72
40872;BME280;26591;43.264;26.940;2022-08-02T02:10:51;98680.34;;;24.67;54.93
40872;BME280;26591;43.264;26.940;2022-08-02T02:13:18;98683.38;;;24.81;54.43
40872;BME280;26591;43.264;26.940;2022-08-02T02:15:46;98677.94;;;24.76;54.53
40872;BME280;26591;43.264;26.940;2022-08-02T02:18:17;98680.91;;;24.80;54.49
40872;BME280;26591;43.264;26.940;2022-08-02T02:20:45;98679.28;;;24.79;54.03
40872;BME280;26591;43.264;26.940;2022-08-02T02:23:11;98678.78;;;24.87;54.22
40872;BME280;26591;43.264;26.940;2022-08-02T02:25:40;98681.22;;;24.83;53.53
40872;BME280;26591;43.264;26.940;2022-08-02T02:28:10;98677.94;;;24.76;53.99
40872;BME280;26591;43.264;26.940;2022-08-02T02:30:39;98679.53;;;24.67;54.07
40872;BME280;26591;43.264;26.940;2022-08-02T02:33:06;98670.53;;;24.41;54.90
40872;BME280;26591;43.264;26.940;2022-08-02T02:35:34;98675.66;;;24.42;54.21
40872;BME280;26591;43.264;26.940;2022-08-02T02:38:04;98667.28;;;24.33;54.98
40872;BME280;26591;43.264;26.940;2022-08-02T02:40:30;98663.41;;;24.03;56.04
40872;BME280;26591;43.264;26.940;2022-08-02T02:42:58;98676.59;;;24.00;56.35
40872;BME280;26591;43.264;26.940;2022-08-02T02:45:25;98674.50;;;24.12;55.57
40872;BME280;26591;43.264;26.940;2022-08-02T02:47:52;98669.91;;;24.13;55.26
40872;BME280;26591;43.264;26.940;2022-08-02T02:50:20;98682.69;;;23.74;56.89
40872;BME280;26591;43.264;26.940;2022-08-02T02:52:46;98683.84;;;23.89;56.49
40872;BME280;26591;43.264;26.940;2022-08-02T02:55:13;98682.56;;;24.02;55.91
40872;BME280;26591;43.264;26.940;2022-08-02T02:57:39;98691.81;;;24.11;55.74
40872;BME280;26591;43.264;26.940;2022-08-02T03:00:08;98690.50;;;24.24;55.49
40872;BME280;26591;43.264;26.940;2022-08-02T03:02:37;98697.75;;;24.13;56.09
40872;BME280;26591;43.264;26.940;2022-08-02T03:05:03;98696.19;;;24.22;55.20
40872;BME280;26591;43.264;26.940;2022-08-02T03:07:32;98701.47;;;23.97;56.40
40872;BME280;26591;43.264;26.940;2022-08-02T03:09:58;98697.59;;;23.82;56.59
40872;BME280;26591;43.264;26.940;2022-08-02T03:12:24;98706.66;;;24.08;56.25
40872;BME280;26591;43.264;26.940;2022-08-02T03:14:50;98697.22;;;24.16;55.46
40872;BME280;26591;43.264;26.940;2022-08-02T03:17:16;98698.69;;;24.45;55.25
40872;BME280;26591;43.264;26.940;2022-08-02T03:19:41;98695.25;;;24.75;54.30
40872;BME280;26591;43.264;26.940;2022-08-02T03:22:07;98699.09;;;25.21;53.06
40872;BME280;26591;43.264;26.940;2022-08-02T03:24:32;98698.28;;;25.46;53.15
40872;BME280;26591;43.264;26.940;2022-08-02T03:26:58;98694.63;;;26.13;51.64
40872;BME280;26591;43.264;26.940;2022-08-02T03:29:23;98706.88;;;26.60;50.74
40872;BME280;26591;43.264;26.940;2022-08-02T03:31:50;98707.06;;;26.74;49.50
40872;BME280;26591;43.264;26.940;2022-08-02T03:34:17;98709.34;;;27.02;48.76
40872;BME280;26591;43.264;26.940;2022-08-02T03:36:47;98705.47;;;27.13;49.26
40872;BME280;26591;43.264;26.940;2022-08-02T03:39:15;98705.78;;;27.36;48.00
40872;BME280;26591;43.264;26.940;2022-08-02T03:41:42;98708.13;;;27.53;48.42
40872;BME280;26591;43.264;26.940;2022-08-02T03:44:08;98717.16;;;27.72;47.68
40872;BME280;26591;43.264;26.940;2022-08-02T03:46:36;98722.81;;;28.30;45.84
40872;BME280;26591;43.264;26.940;2022-08-02T03:49:04;98718.59;;;28.62;45.94
40872;BME280;26591;43.264;26.940;2022-08-02T03:51:31;98718.13;;;29.12;44.50
40872;BME280;26591;43.264;26.940;2022-08-02T03:53:56;98727.69;;;29.62;43.75
40872;BME280;26591;43.264;26.940;2022-08-02T03:56:22;98726.13;;;30.17;42.62
40872;BME280;26591;43.264;26.940;2022-08-02T03:58:48;98734.81;;;30.33;42.78
40872;BME280;26591;43.264;26.940;2022-08-02T04:01:13;98735.50;;;30.52;41.55
40872;BME280;26591;43.264;26.940;2022-08-02T04:03:39;98729.63;;;30.73;41.00
40872;BME280;26591;43.264;26.940;2022-08-02T04:06:05;98737.16;;;30.90;40.35
40872;BME280;26591;43.264;26.940;2022-08-02T04:08:32;98741.31;;;31.10;40.13
40872;BME280;26591;43.264;26.940;2022-08-02T04:10:57;98739.09;;;31.35;41.56
40872;BME280;26591;43.264;26.940;2022-08-02T04:13:41;98743.66;;;30.80;41.78
40872;BME280;26591;43.264;26.940;2022-08-02T04:16:36;98749.47;;;30.51;42.46
40872;BME280;26591;43.264;26.940;2022-08-02T04:19:07;98744.41;;;30.44;42.75
40872;BME280;26591;43.264;26.940;2022-08-02T04:21:36;98748.59;;;30.78;42.19
40872;BME280;26591;43.264;26.940;2022-08-02T04:24:05;98746.19;;;31.36;40.96
40872;BME280;26591;43.264;26.940;2022-08-02T04:26:33;98752.38;;;31.73;40.21
40872;BME280;26591;43.264;26.940;2022-08-02T04:28:59;98754.50;;;31.85;39.06
40872;BME280;26591;43.264;26.940;2022-08-02T04:31:26;98753.78;;;32.02;38.80
40872;BME280;26591;43.264;26.940;2022-08-02T04:33:52;98753.97;;;32.06;38.11
40872;BME280;26591;43.264;26.940;2022-08-02T04:36:18;98753.03;;;32.19;37.50
40872;BME280;26591;43.264;26.940;2022-08-02T04:38:44;98755.88;;;32.46;37.82
40872;BME280;26591;43.264;26.940;2022-08-02T04:41:14;98756.06;;;32.58;37.27
40872;BME280;26591;43.264;26.940;2022-08-02T04:43:41;98756.56;;;32.78;37.69
40872;BME280;26591;43.264;26.940;2022-08-02T04:46:07;98762.88;;;32.96;36.92
40872;BME280;26591;43.264;26.940;2022-08-02T04:48:33;98758.34;;;33.53;36.21
40872;BME280;26591;43.264;26.940;2022-08-02T04:50:58;98756.53;;;33.66;36.02
40872;BME280;26591;43.264;26.940;2022-08-02T04:53:24;98759.16;;;33.44;36.39
40872;BME280;26591;43.264;26.940;2022-08-02T04:55:50;98759.13;;;33.53;36.16
40872;BME280;26591;43.264;26.940;2022-08-02T04:58:15;98765.31;;;33.98;35.36
40872;BME280;26591;43.264;26.940;2022-08-02T05:00:41;98765.09;;;34.12;34.42
40872;BME280;26591;43.264;26.940;2022-08-02T05:03:07;98766.41;;;34.44;34.63
40872;BME280;26591;43.264;26.940;2022-08-02T05:05:32;98758.38;;;34.30;34.61
40872;BME280;26591;43.264;26.940;2022-08-02T05:07:58;98755.84;;;34.16;34.71
40872;BME280;26591;43.264;26.940;2022-08-02T05:10:23;98764.00;;;34.43;34.68
40872;BME280;26591;43.264;26.940;2022-08-02T05:12:49;98759.72;;;34.54;34.50
40872;BME280;26591;43.264;26.940;2022-08-02T05:15:15;98763.44;;;33.72;35.26
40872;BME280;26591;43.264;26.940;2022-08-02T05:17:44;98764.00;;;34.04;35.32
40872;BME280;26591;43.264;26.940;2022-08-02T05:20:11;98765.81;;;33.91;34.97
40872;BME280;26591;43.264;26.940;2022-08-02T05:22:38;98761.75;;;33.97;36.38
40872;BME280;26591;43.264;26.940;2022-08-02T05:25:04;98764.75;;;33.74;35.35
40872;BME280;26591;43.264;26.940;2022-08-02T05:27:30;98769.66;;;33.51;36.55
40872;BME280;26591;43.264;26.940;2022-08-02T05:29:57;98773.50;;;33.24;36.66
40872;BME280;26591;43.264;26.940;2022-08-02T05:32:23;98770.44;;;33.25;36.66
40872;BME280;26591;43.264;26.940;2022-08-02T05:34:48;98771.28;;;33.43;36.46
40872;BME280;26591;43.264;26.940;2022-08-02T05:37:14;98775.91;;;33.52;36.76
40872;BME280;26591;43.264;26.940;2022-08-02T05:39:39;98774.91;;;33.65;36.63
40872;BME280;26591;43.264;26.940;2022-08-02T05:42:05;98773.81;;;33.48;36.27
40872;BME280;26591;43.264;26.940;2022-08-02T05:44:30;98777.03;;;33.33;36.33
40872;BME280;26591;43.264;26.940;2022-08-02T05:46:56;98778.25;;;33.80;36.16
40872;BME280;26591;43.264;26.940;2022-08-02T05:49:21;98776.41;;;34.10;35.50
40872;BME280;26591;43.264;26.940;2022-08-02T05:52:14;98789.34;;;34.01;35.25
40872;BME280;26591;43.264;26.940;2022-08-02T05:57:26;98781.66;;;34.84;34.39
40872;BME280;26591;43.264;26.940;2022-08-02T06:00:08;98784.00;;;34.04;36.00
40872;BME280;26591;43.264;26.940;2022-08-02T06:05:39;98791.25;;;33.17;37.38
40872;BME280;26591;43.264;26.940;2022-08-02T06:08:06;98786.41;;;33.32;37.11
40872;BME280;26591;43.264;26.940;2022-08-02T06:10:35;98794.97;;;33.22;37.47
40872;BME280;26591;43.264;26.940;2022-08-02T06:13:09;98797.06;;;33.51;36.59
40872;BME280;26591;43.264;26.940;2022-08-02T06:15:37;98783.84;;;33.44;35.75
40872;BME280;26591;43.264;26.940;2022-08-02T06:18:04;98796.09;;;33.03;37.01
40872;BME280;26591;43.264;26.940;2022-08-02T06:20:31;98791.41;;;32.86;37.49
40872;BME280;26591;43.264;26.940;2022-08-02T06:23:07;98795.88;;;33.70;36.34
40872;BME280;26591;43.264;26.940;2022-08-02T06:25:35;98793.47;;;33.68;35.78
40872;BME280;26591;43.264;26.940;2022-08-02T06:28:03;98785.88;;;34.21;34.92
40872;BME280;26591;43.264;26.940;2022-08-02T06:30:30;98799.44;;;34.57;34.05
40872;BME280;26591;43.264;26.940;2022-08-02T06:32:56;98787.38;;;34.49;35.15
40872;BME280;26591;43.264;26.940;2022-08-02T06:35:33;98784.66;;;34.40;34.49
40872;BME280;26591;43.264;26.940;2022-08-02T06:38:01;98786.34;;;33.93;35.75
40872;BME280;26591;43.264;26.940;2022-08-02T06:43:17;98782.31;;;34.21;35.25
40872;BME280;26591;43.264;26.940;2022-08-02T06:45:46;98785.16;;;34.63;33.96
40872;BME280;26591;43.264;26.940;2022-08-02T06:48:11;98787.41;;;34.70;34.18
40872;BME280;26591;43.264;26.940;2022-08-02T06:50:44;98783.78;;;34.18;34.46
40872;BME280;26591;43.264;26.940;2022-08-02T06:53:11;98777.75;;;33.95;34.70
40872;BME280;26591;43.264;26.940;2022-08-02T06:55:40;98780.63;;;33.25;35.28
40872;BME280;26591;43.264;26.940;2022-08-02T06:58:05;98789.38;;;33.83;34.68
40872;BME280;26591;43.264;26.940;2022-08-02T07:00:31;98788.25;;;34.32;34.15
40872;BME280;26591;43.264;26.940;2022-08-02T07:02:57;98786.78;;;34.64;33.55
40872;BME280;26591;43.264;26.940;2022-08-02T07:05:23;98790.72;;;33.68;34.53
40872;BME280;26591;43.264;26.940;2022-08-02T07:07:50;98778.84;;;33.20;35.46
40872;BME280;26591;43.264;26.940;2022-08-02T07:10:17;98790.31;;;33.13;34.95
40872;BME280;26591;43.264;26.940;2022-08-02T07:12:43;98778.94;;;32.80;36.21
40872;BME280;26591;43.264;26.940;2022-08-02T07:15:09;98786.94;;;32.32;36.80
40872;BME280;26591;43.264;26.940;2022-08-02T07:17:38;98777.38;;;32.96;35.77
40872;BME280;26591;43.264;26.940;2022-08-02T07:20:05;98784.47;;;33.24;35.16
40872;BME280;26591;43.264;26.940;2022-08-02T07:22:31;98782.56;;;33.15;36.11
40872;BME280;26591;43.264;26.940;2022-08-02T07:24:58;98777.34;;;32.61;36.31
40872;BME280;26591;43.264;26.940;2022-08-02T07:27:25;98775.13;;;33.33;35.56
40872;BME280;26591;43.264;26.940;2022-08-02T07:29:51;98783.50;;;33.46;35.09
40872;BME280;26591;43.264;26.940;2022-08-02T07:32:19;98759.78;;;34.06;34.28
40872;BME280;26591;43.264;26.940;2022-08-02T07:34:46;98773.25;;;33.82;34.90
40872;BME280;26591;43.264;26.940;2022-08-02T07:37:12;98769.06;;;34.23;33.81
40872;BME280;26591;43.264;26.940;2022-08-02T07:39:38;98756.09;;;34.02;33.90
40872;BME280;26591;43.264;26.940;2022-08-02T07:42:03;98757.06;;;33.98;33.35
40872;BME280;26591;43.264;26.940;2022-08-02T07:44:29;98765.16;;;33.38;34.71
40872;BME280;26591;43.264;26.940;2022-08-02T07:47:00;98767.53;;;32.95;35.05
40872;BME280;26591;43.264;26.940;2022-08-02T07:49:26;98764.50;;;33.14;35.35
40872;BME280;26591;43.264;26.940;2022-08-02T07:51:53;98761.75;;;33.23;35.34
40872;BME280;26591;43.264;26.940;2022-08-02T07:54:19;98755.53;;;33.70;34.52
40872;BME280;26591;43.264;26.940;2022-08-02T07:56:45;98771.41;;;34.42;33.33
40872;BME280;26591;43.264;26.940;2022-08-02T07:59:10;98764.34;;;34.62;32.67
40872;BME280;26591;43.264;26.940;2022-08-02T08:01:36;98762.66;;;34.19;34.12
40872;BME280;26591;43.264;26.940;2022-08-02T08:04:02;98758.16;;;33.58;35.02
40872;BME280;26591;43.264;26.940;2022-08-02T08:06:29;98754.81;;;33.26;34.84
40872;BME280;26591;43.264;26.940;2022-08-02T08:08:55;98772.22;;;32.86;35.84
40872;BME280;26591;43.264;26.940;2022-08-02T08:11:21;98756.59;;;31.79;37.52
40872;BME280;26591;43.264;26.940;2022-08-02T08:13:46;98761.91;;;31.30;38.10
40872;BME280;26591;43.264;26.940;2022-08-02T08:16:12;98762.97;;;31.20;37.85
40872;BME280;26591;43.264;26.940;2022-08-02T08:18:37;98754.56;;;31.94;37.47
40872;BME280;26591;43.264;26.940;2022-08-02T08:21:03;98753.44;;;31.95;37.00
40872;BME280;26591;43.264;26.940;2022-08-02T08:23:28;98755.91;;;32.63;36.42
40872;BME280;26591;43.264;26.940;2022-08-02T08:25:54;98756.28;;;32.88;35.73
40872;BME280;26591;43.264;26.940;2022-08-02T08:28:20;98749.47;;;33.29;34.83
40872;BME280;26591;43.264;26.940;2022-08-02T08:30:45;98752.56;;;33.28;34.15
40872;BME280;26591;43.264;26.940;2022-08-02T08:33:14;98756.22;;;32.62;35.93
40872;BME280;26591;43.264;26.940;2022-08-02T08:35:40;98756.56;;;32.69;34.95
40872;BME280;26591;43.264;26.940;2022-08-02T08:38:06;98759.59;;;32.59;35.27
40872;BME280;26591;43.264;26.940;2022-08-02T08:40:31;98763.75;;;32.38;36.23
40872;BME280;26591;43.264;26.940;2022-08-02T08:42:57;98757.69;;;32.10;36.56
40872;BME280;26591;43.264;26.940;2022-08-02T08:45:22;98748.94;;;32.39;36.55
40872;BME280;26591;43.264;26.940;2022-08-02T08:48:02;98748.97;;;32.66;36.08
40872;BME280;26591;43.264;26.940;2022-08-02T08:50:32;98745.41;;;32.48;35.61
40872;BME280;26591;43.264;26.940;2022-08-02T08:53:07;98742.91;;;31.79;36.67
40872;BME280;26591;43.264;26.940;2022-08-02T08:55:35;98740.50;;;31.78;37.83
40872;BME280;26591;43.264;26.940;2022-08-02T08:58:03;98749.69;;;32.22;36.98
40872;BME280;26591;43.264;26.940;2022-08-02T09:00:30;98750.25;;;32.02;36.87
40872;BME280;26591;43.264;26.940;2022-08-02T09:02:57;98749.19;;;32.20;36.73
40872;BME280;26591;43.264;26.940;2022-08-02T09:05:22;98743.44;;;31.90;36.79
40872;BME280;26591;43.264;26.940;2022-08-02T09:07:50;98737.28;;;31.53;38.02
40872;BME280;26591;43.264;26.940;2022-08-02T09:10:34;98743.84;;;31.75;36.51
40872;BME280;26591;43.264;26.940;2022-08-02T09:15:36;98739.09;;;31.58;37.13
40872;BME280;26591;43.264;26.940;2022-08-02T09:18:03;98737.00;;;31.63;36.80
40872;BME280;26591;43.264;26.940;2022-08-02T09:20:31;98729.38;;;31.51;36.12
40872;BME280;26591;43.264;26.940;2022-08-02T09:23:08;98730.06;;;30.89;37.98
40872;BME280;26591;43.264;26.940;2022-08-02T09:25:35;98736.19;;;30.72;38.27
40872;BME280;26591;43.264;26.940;2022-08-02T09:28:03;98731.94;;;30.80;38.48
40872;BME280;26591;43.264;26.940;2022-08-02T09:30:29;98733.94;;;30.74;38.74
40872;BME280;26591;43.264;26.940;2022-08-02T09:32:55;98731.47;;;30.36;38.77
40872;BME280;26591;43.264;26.940;2022-08-02T09:35:58;98727.25;;;30.02;39.31
40872;BME280;26591;43.264;26.940;2022-08-02T09:38:24;98733.59;;;29.97;39.56
40872;BME280;26591;43.264;26.940;2022-08-02T09:40:49;98731.56;;;30.30;39.11
40872;BME280;26591;43.264;26.940;2022-08-02T09:43:16;98732.50;;;29.98;39.31
40872;BME280;26591;43.264;26.940;2022-08-02T09:45:41;98735.81;;;29.81;39.74
40872;BME280;26591;43.264;26.940;2022-08-02T09:48:08;98740.00;;;29.59;40.18
40872;BME280;26591;43.264;26.940;2022-08-02T09:50:35;98728.25;;;29.92;39.73
40872;BME280;26591;43.264;26.940;2022-08-02T09:53:01;98721.56;;;30.40;39.15
40872;BME280;26591;43.264;26.940;2022-08-02T09:55:28;98725.09;;;30.91;38.72
40872;BME280;26591;43.264;26.940;2022-08-02T09:57:54;98724.38;;;31.45;36.83
40872;BME280;26591;43.264;26.940;2022-08-02T10:00:20;98729.81;;;31.13;37.90
40872;BME280;26591;43.264;26.940;2022-08-02T10:03:09;98729.03;;;30.62;38.60
40872;BME280;26591;43.264;26.940;2022-08-02T10:08:13;98722.97;;;30.65;38.82
40872;BME280;26591;43.264;26.940;2022-08-02T10:10:40;98722.63;;;30.53;38.42
40872;BME280;26591;43.264;26.940;2022-08-02T10:13:05;98719.50;;;30.73;38.31
40872;BME280;26591;43.264;26.940;2022-08-02T10:15:31;98723.66;;;30.94;37.55
40872;BME280;26591;43.264;26.940;2022-08-02T10:17:58;98729.25;;;31.57;36.09
40872;BME280;26591;43.264;26.940;2022-08-02T10:20:23;98732.00;;;31.88;36.63
40872;BME280;26591;43.264;26.940;2022-08-02T10:22:50;98726.94;;;32.04;36.54
40872;BME280;26591;43.264;26.940;2022-08-02T10:25:19;98717.72;;;32.00;36.55
40872;BME280;26591;43.264;26.940;2022-08-02T10:27:47;98714.97;;;32.58;36.16
40872;BME280;26591;43.264;26.940;2022-08-02T10:30:13;98722.38;;;32.57;35.21
40872;BME280;26591;43.264;26.940;2022-08-02T10:32:42;98709.06;;;32.07;35.38
40872;BME280;26591;43.264;26.940;2022-08-02T10:35:11;98731.28;;;32.05;35.53
40872;BME280;26591;43.264;26.940;2022-08-02T10:37:38;98716.16;;;31.45;36.88
40872;BME280;26591;43.264;26.940;2022-08-02T10:40:07;98712.06;;;31.11;37.57
40872;BME280;26591;43.264;26.940;2022-08-02T10:42:51;98717.22;;;31.12;37.56
40872;BME280;26591;43.264;26.940;2022-08-02T12:03:35;98689.56;;;30.68;37.51
40872;BME280;26591;43.264;26.940;2022-08-02T13:10:09;98679.75;;;31.67;36.26
40872;BME280;26591;43.264;26.940;2022-08-02T14:21:11;98707.53;;;30.19;38.19
40872;BME280;26591;43.264;26.940;2022-08-02T14:56:43;98695.00;;;30.82;37.43
40872;BME280;26591;43.264;26.940;2022-08-02T16:10:14;98709.22;;;29.73;38.96
40872;BME280;26591;43.264;26.940;2022-08-02T16:58:34;98732.47;;;29.37;39.21
40872;BME280;26591;43.264;26.940;2022-08-02T17:48:49;98769.81;;;28.98;41.38
40872;BME280;26591;43.264;26.940;2022-08-02T19:57:34;98864.91;;;27.07;45.03
40872;BME280;26591;43.264;26.940;2022-08-02T20:41:13;98884.47;;;27.04;46.25
40872;BME280;26591;43.264;26.940;2022-08-02T21:48:01;98897.97;;;26.23;48.18
40872;BME280;26591;43.264;26.940;2022-08-02T23:18:43;98924.69;;;25.37;52.29
